Time;durP1;ratioP1;P1;durP2;ratioP2;P2;SDS_P1;SDS_P2;PMS_P1;PMS_P2;Temp;Humidity;BMP_temperature;BMP_pressure;BME280_temperature;BME280_humidity;BME280_pressure;Samples;Min_cycle;Max_cycle;Signal;HPM_P1;HPM_P2
2024/02/11 00:00:32;;;;;;;;;;;;;;;7.42;100.00;98255.69;5134812;27;20371;-81
2024/02/11 00:02:57;;;;;;;;;;;;;;;7.40;100.00;98257.00;5147879;27;20365;-81
2024/02/11 00:05:24;;;;;;;;;;;;;;;7.40;100.00;98254.31;5141795;27;20260;-81
2024/02/11 00:07:49;;;;;;;;;;;;;;;7.38;100.00;98259.94;5144214;27;19924;-81
2024/02/11 00:10:18;;;;;;;;;;;;;;;7.37;100.00;98262.81;5146220;27;20006;-81
2024/02/11 00:12:43;;;;;;;;;;;;;;;7.35;100.00;98263.09;5159973;27;20324;-80
2024/02/11 00:15:08;;;;;;;;;;;;;;;7.37;100.00;98274.38;5145260;27;19919;-81
2024/02/11 00:17:37;;;;;;;;;;;;;;;7.33;100.00;98261.69;5134772;27;19942;-81
2024/02/11 00:20:02;;;;;;;;;;;;;;;7.32;100.00;98263.56;5141237;27;19926;-81
2024/02/11 00:22:28;;;;;;;;;;;;;;;7.31;100.00;98258.44;5139687;27;19928;-81
2024/02/11 00:24:56;;;;;;;;;;;;;;;7.30;100.00;98262.97;5137033;27;20014;-80
2024/02/11 00:27:24;;;;;;;;;;;;;;;7.30;100.00;98254.16;5141887;27;19919;-80
2024/02/11 00:29:52;;;;;;;;;;;;;;;7.28;100.00;98244.50;5145185;27;20080;-81
2024/02/11 00:32:17;;;;;;;;;;;;;;;7.29;100.00;98245.28;5137135;27;19926;-81
2024/02/11 00:34:43;;;;;;;;;;;;;;;7.28;100.00;98244.50;5147922;27;19919;-80
2024/02/11 00:37:10;;;;;;;;;;;;;;;7.28;100.00;98243.66;5137695;27;19948;-80
2024/02/11 00:39:36;;;;;;;;;;;;;;;7.27;100.00;98242.88;5142603;27;20006;-80
2024/02/11 00:42:01;;;;;;;;;;;;;;;7.28;100.00;98236.47;5137176;27;19951;-82
2024/02/11 00:44:27;;;;;;;;;;;;;;;7.33;100.00;98241.09;5133496;27;20370;-81
2024/02/11 00:46:52;;;;;;;;;;;;;;;7.34;100.00;98242.72;5139741;27;20013;-81
2024/02/11 00:49:18;;;;;;;;;;;;;;;7.34;100.00;98242.72;5141800;27;19919;-80
2024/02/11 00:51:43;;;;;;;;;;;;;;;7.37;100.00;98244.09;5132204;27;19946;-81
2024/02/11 00:54:09;;;;;;;;;;;;;;;7.37;100.00;98241.41;5138389;27;19979;-81
2024/02/11 00:56:34;;;;;;;;;;;;;;;7.39;100.00;98240.16;5137974;27;20022;-81
2024/02/11 00:58:59;;;;;;;;;;;;;;;7.39;100.00;98240.16;5135582;27;19933;-81
2024/02/11 01:01:25;;;;;;;;;;;;;;;7.37;100.00;98247.59;5132303;27;19920;-80
2024/02/11 01:03:56;;;;;;;;;;;;;;;7.38;100.00;98246.53;5139301;27;19946;-81
2024/02/11 01:06:24;;;;;;;;;;;;;;;7.35;100.00;98248.88;5132964;27;19977;-81
2024/02/11 01:08:49;;;;;;;;;;;;;;;7.35;100.00;98244.34;5144547;27;20414;-81
2024/02/11 01:11:17;;;;;;;;;;;;;;;7.34;100.00;98242.72;5132919;27;19926;-81
2024/02/11 01:13:42;;;;;;;;;;;;;;;7.34;100.00;98241.88;5138781;27;20375;-81
2024/02/11 01:16:07;;;;;;;;;;;;;;;7.35;100.00;98249.69;5147087;27;20003;-81
2024/02/11 01:18:32;;;;;;;;;;;;;;;7.36;100.00;98239.78;5140950;27;19919;-81
2024/02/11 01:20:57;;;;;;;;;;;;;;;7.35;100.00;98238.16;5138720;27;20018;-81
2024/02/11 01:23:23;;;;;;;;;;;;;;;7.34;100.00;98236.53;5137720;27;20042;-81
2024/02/11 01:25:49;;;;;;;;;;;;;;;7.32;100.00;98236.78;5144557;27;19948;-80
2024/02/11 01:28:15;;;;;;;;;;;;;;;7.33;100.00;98238.41;5141817;27;19919;-81
2024/02/11 01:30:41;;;;;;;;;;;;;;;7.31;100.00;98237.84;5139159;27;19968;-81
2024/02/11 01:33:09;;;;;;;;;;;;;;;7.29;100.00;98239.94;5142588;27;19919;-81
2024/02/11 01:35:34;;;;;;;;;;;;;;;7.27;100.00;98232.16;5146813;27;20227;-81
2024/02/11 01:38:00;;;;;;;;;;;;;;;7.25;100.00;98239.63;5132781;27;19927;-80
2024/02/11 01:40:28;;;;;;;;;;;;;;;7.26;100.00;98240.41;5131809;27;20370;-81
2024/02/11 01:42:56;;;;;;;;;;;;;;;7.26;100.00;98232.38;5131996;27;19991;-80
2024/02/11 01:45:21;;;;;;;;;;;;;;;7.26;100.00;98222.50;5145006;27;19962;-80
2024/02/11 01:47:46;;;;;;;;;;;;;;;7.24;100.00;98221.94;5130174;27;19966;-81
2024/02/11 01:50:15;;;;;;;;;;;;;;;7.28;100.00;98228.44;5132045;27;19931;-81
2024/02/11 01:52:40;;;;;;;;;;;;;;;7.27;100.00;98221.47;5133896;27;20493;-81
2024/02/11 01:55:06;;;;;;;;;;;;;;;7.25;100.00;98212.03;5115892;27;19963;-80
2024/02/11 01:57:31;;;;;;;;;;;;;;;7.22;100.00;98218.69;5114438;27;19919;-81
2024/02/11 01:59:57;;;;;;;;;;;;;;;7.23;100.00;98219.50;5141246;27;19919;-81
2024/02/11 02:02:22;;;;;;;;;;;;;;;7.22;100.00;98228.59;5132249;27;19919;-81
2024/02/11 02:04:47;;;;;;;;;;;;;;;7.19;100.00;98231.75;5116114;27;20380;-81
2024/02/11 02:07:13;;;;;;;;;;;;;;;7.12;100.00;98232.69;5142760;27;19927;-81
2024/02/11 02:09:38;;;;;;;;;;;;;;;7.09;100.00;98235.03;5114250;27;19944;-81
2024/02/11 02:12:04;;;;;;;;;;;;;;;7.07;100.00;98243.28;5140979;27;19920;-81
2024/02/11 02:14:30;;;;;;;;;;;;;;;7.07;100.00;98237.13;5135556;27;19923;-81
2024/02/11 02:16:55;;;;;;;;;;;;;;;7.07;100.00;98237.94;5139836;27;20287;-79
2024/02/11 02:19:21;;;;;;;;;;;;;;;7.07;100.00;98237.94;5145929;27;20018;-76
2024/02/11 02:21:54;;;;;;;;;;;;;;;7.06;100.00;98236.31;5137746;27;19931;-77
2024/02/11 02:24:19;;;;;;;;;;;;;;;7.06;100.00;98230.97;5137368;27;19946;-77
2024/02/11 02:26:46;;;;;;;;;;;;;;;7.04;100.00;98235.75;5148819;27;19961;-77
2024/02/11 02:29:11;;;;;;;;;;;;;;;7.01;100.00;98236.22;5134243;27;19920;-77
2024/02/11 02:31:37;;;;;;;;;;;;;;;6.97;100.00;98227.84;5140905;27;19921;-77
2024/02/11 02:34:02;;;;;;;;;;;;;;;6.96;100.00;98222.75;5134948;27;19928;-77
2024/02/11 02:36:27;;;;;;;;;;;;;;;6.94;100.00;98219.50;5136882;27;19926;-76
2024/02/11 02:38:55;;;;;;;;;;;;;;;6.93;100.00;98220.56;5131164;27;20002;-77
2024/02/11 02:41:21;;;;;;;;;;;;;;;6.91;100.00;98214.63;5149770;27;19923;-77
2024/02/11 02:43:46;;;;;;;;;;;;;;;6.89;100.00;98206.03;5137073;27;19926;-77
2024/02/11 02:46:12;;;;;;;;;;;;;;;6.85;100.00;98216.38;5139512;27;19959;-77
2024/02/11 02:48:37;;;;;;;;;;;;;;;6.84;100.00;98206.75;5138597;27;20021;-77
2024/02/11 02:51:03;;;;;;;;;;;;;;;6.83;100.00;98211.28;5139602;27;19922;-77
2024/02/11 02:53:28;;;;;;;;;;;;;;;6.83;100.00;98213.97;5143667;27;19923;-77
2024/02/11 02:55:53;;;;;;;;;;;;;;;6.80;100.00;98214.44;5138362;27;19919;-77
2024/02/11 02:58:18;;;;;;;;;;;;;;;6.81;100.00;98217.91;5132207;27;19926;-76
2024/02/11 03:00:44;;;;;;;;;;;;;;;6.79;100.00;98212.81;5132693;27;19951;-77
2024/02/11 03:03:09;;;;;;;;;;;;;;;6.78;100.00;98208.50;5137554;27;19923;-77
2024/02/11 03:05:40;;;;;;;;;;;;;;;6.76;100.00;98204.47;5134723;27;19954;-77
2024/02/11 03:08:06;;;;;;;;;;;;;;;6.74;100.00;98207.34;5130270;27;19980;-77
2024/02/11 03:10:31;;;;;;;;;;;;;;;6.76;100.00;98207.94;5136666;27;20334;-77
2024/02/11 03:12:56;;;;;;;;;;;;;;;6.75;100.00;98202.84;5145670;27;19931;-78
2024/02/11 03:15:22;;;;;;;;;;;;;;;6.72;100.00;98196.09;5141709;27;20911;-76
2024/02/11 03:17:47;;;;;;;;;;;;;;;6.72;100.00;98192.63;5136798;27;20347;-76
2024/02/11 03:20:15;;;;;;;;;;;;;;;6.70;100.00;98190.19;5142304;27;20390;-76
2024/02/11 03:22:41;;;;;;;;;;;;;;;6.67;100.00;98191.47;5145335;27;19923;-76
2024/02/11 03:25:08;;;;;;;;;;;;;;;6.67;100.00;98198.69;5139648;27;19919;-76
2024/02/11 03:27:34;;;;;;;;;;;;;;;6.64;100.00;98196.47;5144326;27;19919;-76
2024/02/11 03:29:59;;;;;;;;;;;;;;;6.61;100.00;98196.94;5142356;27;20359;-76
2024/02/11 03:32:24;;;;;;;;;;;;;;;6.61;100.00;98199.63;5138718;27;19927;-76
2024/02/11 03:34:49;;;;;;;;;;;;;;;6.61;100.00;98196.94;5135267;27;19924;-77
2024/02/11 03:37:15;;;;;;;;;;;;;;;6.61;100.00;98191.59;5143504;27;20401;-76
2024/02/11 03:39:40;;;;;;;;;;;;;;;6.66;100.00;98207.75;5146044;27;20612;-76
2024/02/11 03:42:05;;;;;;;;;;;;;;;6.64;100.00;98204.50;5135846;27;20264;-76
2024/02/11 03:44:30;;;;;;;;;;;;;;;6.64;100.00;98191.91;5138618;27;20550;-76
2024/02/11 03:46:56;;;;;;;;;;;;;;;6.62;100.00;98193.22;5132441;27;20435;-76
2024/02/11 03:49:23;;;;;;;;;;;;;;;6.61;100.00;98202.28;5146225;22;19927;-77
2024/02/11 03:51:49;;;;;;;;;;;;;;;6.66;100.00;98194.38;5110997;28;19955;-76
2024/02/11 03:54:14;;;;;;;;;;;;;;;6.66;100.00;98205.88;5111315;28;20004;-76
2024/02/11 03:56:40;;;;;;;;;;;;;;;6.66;100.00;98211.22;5109039;28;20336;-76
2024/02/11 03:59:07;;;;;;;;;;;;;;;6.71;100.00;98209.69;5098871;28;20389;-76
2024/02/11 04:01:35;;;;;;;;;;;;;;;6.68;100.00;98205.66;5109675;28;19977;-76
2024/02/11 04:04:00;;;;;;;;;;;;;;;6.64;100.00;98204.50;5109309;28;19939;-76
2024/02/11 04:06:27;;;;;;;;;;;;;;;6.60;100.00;98212.19;5101545;28;19924;-76
2024/02/11 04:08:52;;;;;;;;;;;;;;;6.59;100.00;98204.38;5110851;28;19920;-75
2024/02/11 04:11:21;;;;;;;;;;;;;;;6.57;100.00;98209.97;5109737;28;20276;-76
2024/02/11 04:13:47;;;;;;;;;;;;;;;6.55;100.00;98214.75;5102686;28;19959;-75
2024/02/11 04:16:15;;;;;;;;;;;;;;;6.51;100.00;98213.59;5106428;28;19959;-76
2024/02/11 04:18:40;;;;;;;;;;;;;;;6.52;100.00;98212.53;5109967;28;20376;-76
2024/02/11 04:21:06;;;;;;;;;;;;;;;6.56;100.00;98220.88;5104482;28;19920;-77
2024/02/11 04:23:32;;;;;;;;;;;;;;;6.56;100.00;98215.53;5108171;28;19959;-76
2024/02/11 04:25:58;;;;;;;;;;;;;;;6.59;100.00;98215.91;5106741;28;19956;-76
2024/02/11 04:28:23;;;;;;;;;;;;;;;6.65;100.00;98214.13;5124026;28;19920;-76
2024/02/11 04:30:48;;;;;;;;;;;;;;;6.68;100.00;98217.13;5103807;28;19920;-76
2024/02/11 04:33:15;;;;;;;;;;;;;;;6.66;100.00;98219.22;5103550;28;19967;-76
2024/02/11 04:35:40;;;;;;;;;;;;;;;6.73;100.00;98221.78;5106491;28;19920;-76
2024/02/11 04:38:12;;;;;;;;;;;;;;;6.73;100.00;98216.44;5109252;28;19920;-77
2024/02/11 04:40:37;;;;;;;;;;;;;;;6.73;100.00;98219.09;5106065;28;20387;-75
2024/02/11 04:43:02;;;;;;;;;;;;;;;6.70;100.00;98227.63;5106130;28;20012;-76
2024/02/11 04:45:28;;;;;;;;;;;;;;;6.67;100.00;98220.88;5109368;28;19920;-75
2024/02/11 04:47:53;;;;;;;;;;;;;;;6.66;100.00;98224.59;5104729;28;19928;-76
2024/02/11 04:50:21;;;;;;;;;;;;;;;6.63;100.00;98226.94;5108614;28;19920;-75
2024/02/11 04:52:48;;;;;;;;;;;;;;;6.61;100.00;98229.03;5111527;28;19920;-76
2024/02/11 04:55:14;;;;;;;;;;;;;;;6.62;100.00;98225.28;5110502;28;20011;-76
2024/02/11 04:57:39;;;;;;;;;;;;;;;6.58;100.00;98224.97;5107502;28;20010;-76
2024/02/11 05:00:23;;;;;;;;;;;;;;;6.47;100.00;98229.28;5110893;28;20419;-76
2024/02/11 05:02:50;;;;;;;;;;;;;;;6.46;100.00;98235.69;5106835;28;19923;-77
2024/02/11 05:05:16;;;;;;;;;;;;;;;6.43;100.00;98238.81;5104393;28;19920;-77
2024/02/11 05:07:43;;;;;;;;;;;;;;;6.42;100.00;98233.72;5111932;28;19930;-77
2024/02/11 05:10:12;;;;;;;;;;;;;;;6.37;100.00;98234.41;5111424;28;20299;-77
2024/02/11 05:12:37;;;;;;;;;;;;;;;6.39;100.00;98232.31;5110518;28;20382;-77
2024/02/11 05:15:03;;;;;;;;;;;;;;;6.35;100.00;98239.19;5111021;28;20026;-77
2024/02/11 05:17:29;;;;;;;;;;;;;;;6.36;100.00;98236.25;5111394;28;19926;-77
2024/02/11 05:19:54;;;;;;;;;;;;;;;6.36;100.00;98246.13;5111311;28;19920;-77
2024/02/11 05:22:20;;;;;;;;;;;;;;;6.35;100.00;98247.19;5110398;28;19920;-77
2024/02/11 05:24:45;;;;;;;;;;;;;;;6.30;100.00;98244.41;5112012;28;19920;-77
2024/02/11 05:27:12;;;;;;;;;;;;;;;6.29;100.00;98243.56;5109993;28;19934;-77
2024/02/11 05:29:38;;;;;;;;;;;;;;;6.27;100.00;98240.31;5110741;28;20347;-77
2024/02/11 05:32:06;;;;;;;;;;;;;;;6.22;100.00;98243.69;5110199;28;19920;-77
2024/02/11 05:34:32;;;;;;;;;;;;;;;6.18;100.00;98231.84;5110884;28;19928;-77
2024/02/11 05:36:59;;;;;;;;;;;;;;;6.16;100.00;98233.97;5109332;28;19964;-77
2024/02/11 05:39:30;;;;;;;;;;;;;;;6.20;100.00;98234.31;5106121;28;19920;-77
2024/02/11 05:41:55;;;;;;;;;;;;;;;6.14;100.00;98229.88;5110952;28;19965;-77
2024/02/11 05:44:20;;;;;;;;;;;;;;;6.09;100.00;98241.28;5109533;28;19927;-77
2024/02/11 05:46:48;;;;;;;;;;;;;;;6.03;100.00;98237.69;5108727;28;19991;-76
2024/02/11 05:49:14;;;;;;;;;;;;;;;6.05;100.00;98238.25;5110348;28;20036;-77
2024/02/11 05:51:39;;;;;;;;;;;;;;;6.11;100.00;98235.69;5101805;28;20064;-77
2024/02/11 05:54:04;;;;;;;;;;;;;;;6.13;100.00;98239.78;5104309;28;19962;-77
2024/02/11 05:56:29;;;;;;;;;;;;;;;6.16;100.00;98236.63;5108975;28;19971;-76
2024/02/11 05:58:54;;;;;;;;;;;;;;;6.21;100.00;98242.06;5099127;28;19919;-77
2024/02/11 06:01:20;;;;;;;;;;;;;;;6.18;100.00;98231.84;5107546;28;19931;-76
2024/02/11 06:03:45;;;;;;;;;;;;;;;6.24;100.00;98246.16;5104797;28;19927;-77
2024/02/11 06:06:10;;;;;;;;;;;;;;;6.24;100.00;98243.50;5104806;28;19927;-79
2024/02/11 06:08:35;;;;;;;;;;;;;;;6.20;100.00;98243.13;5101689;28;19965;-81
2024/02/11 06:11:04;;;;;;;;;;;;;;;6.18;100.00;98247.88;5104561;28;19911;-81
2024/02/11 06:13:30;;;;;;;;;;;;;;;6.18;100.00;98244.41;5097148;28;19931;-81
2024/02/11 06:15:55;;;;;;;;;;;;;;;6.20;100.00;98253.81;5097367;28;19919;-80
2024/02/11 06:18:20;;;;;;;;;;;;;;;6.17;100.00;98245.44;5092835;28;20591;-81
2024/02/11 06:20:46;;;;;;;;;;;;;;;6.29;100.00;98248.13;5092416;28;19927;-81
2024/02/11 06:23:11;;;;;;;;;;;;;;;6.37;100.00;98255.78;5099629;28;20723;-81
2024/02/11 06:25:36;;;;;;;;;;;;;;;6.53;100.00;98255.06;5105456;28;19923;-81
2024/02/11 06:28:01;;;;;;;;;;;;;;;6.74;100.00;98258.16;5104070;28;19972;-81
2024/02/11 06:30:27;;;;;;;;;;;;;;;6.86;100.00;98263.47;5105284;28;19926;-80
2024/02/11 06:32:53;;;;;;;;;;;;;;;6.90;100.00;98263.81;5108662;28;19949;-80
2024/02/11 06:35:19;;;;;;;;;;;;;;;6.98;100.00;98272.28;5103557;28;19949;-80
2024/02/11 06:37:45;;;;;;;;;;;;;;;7.04;100.00;98275.88;5107537;28;19916;-81
2024/02/11 06:40:14;;;;;;;;;;;;;;;7.08;100.00;98274.34;5106556;28;20371;-82
2024/02/11 06:42:40;;;;;;;;;;;;;;;7.19;100.00;98279.91;5098636;28;19923;-81
2024/02/11 06:45:08;;;;;;;;;;;;;;;7.15;100.00;98292.91;5099425;28;19920;-81
2024/02/11 06:47:42;;;;;;;;;;;;;;;7.19;100.00;98293.28;5103024;28;19969;-79
2024/02/11 06:50:08;;;;;;;;;;;;;;;7.22;100.00;98298.16;5101219;28;20355;-80
2024/02/11 06:52:34;;;;;;;;;;;;;;;7.27;100.00;98301.75;5095672;28;20393;-80
2024/02/11 06:55:01;;;;;;;;;;;;;;;7.38;100.00;98299.25;5094365;28;20019;-80
2024/02/11 06:57:26;;;;;;;;;;;;;;;7.46;100.00;98295.38;5088526;28;19932;-81
2024/02/11 06:59:52;;;;;;;;;;;;;;;7.56;100.00;98304.41;5105048;28;19977;-81
2024/02/11 07:02:18;;;;;;;;;;;;;;;7.62;100.00;98313.34;5089511;28;19977;-80
2024/02/11 07:04:43;;;;;;;;;;;;;;;7.67;100.00;98309.97;5087642;28;19920;-80
2024/02/11 07:07:09;;;;;;;;;;;;;;;7.66;100.00;98311.00;5090127;28;20386;-81
2024/02/11 07:09:34;;;;;;;;;;;;;;;7.72;100.00;98318.88;5086048;28;19935;-81
2024/02/11 07:12:00;;;;;;;;;;;;;;;7.74;100.00;98324.81;5087719;28;19920;-81
2024/02/11 07:14:25;;;;;;;;;;;;;;;7.80;100.00;98331.06;5089000;28;20068;-81
2024/02/11 07:16:51;;;;;;;;;;;;;;;7.80;100.00;98335.59;5087194;28;20030;-81
2024/02/11 07:19:17;;;;;;;;;;;;;;;7.83;100.00;98341.31;5087116;28;20129;-81
2024/02/11 07:21:43;;;;;;;;;;;;;;;7.82;100.00;98341.53;5089434;28;19968;-81
2024/02/11 07:24:08;;;;;;;;;;;;;;;7.83;100.00;98354.69;5093675;28;20008;-81
2024/02/11 07:26:34;;;;;;;;;;;;;;;7.77;100.00;98350.28;5087615;28;19934;-89
2024/02/11 07:29:00;;;;;;;;;;;;;;;7.80;100.00;98357.03;5093077;28;19924;-84
2024/02/11 07:31:25;;;;;;;;;;;;;;;7.86;100.00;98361.44;5093242;28;19920;-78
2024/02/11 07:33:51;;;;;;;;;;;;;;;7.89;100.00;98366.31;5086201;28;19976;-79
2024/02/11 07:36:17;;;;;;;;;;;;;;;7.85;100.00;98370.53;5086451;28;20281;-79
2024/02/11 07:38:43;;;;;;;;;;;;;;;7.82;100.00;98371.00;5091560;28;19919;-79
2024/02/11 07:41:09;;;;;;;;;;;;;;;7.84;100.00;98371.56;5093222;28;20045;-79
2024/02/11 07:43:35;;;;;;;;;;;;;;;7.78;100.00;98381.38;5098394;28;19924;-79
2024/02/11 07:46:03;;;;;;;;;;;;;;;7.59;100.00;98394.13;5091689;28;19927;-84
2024/02/11 07:48:29;;;;;;;;;;;;;;;7.47;100.00;98385.34;5083546;28;19920;-82
2024/02/11 07:50:54;;;;;;;;;;;;;;;7.23;100.00;98385.41;5102066;28;19931;-83
2024/02/11 07:53:19;;;;;;;;;;;;;;;7.11;100.00;98399.63;5083573;28;19920;-83
2024/02/11 07:55:47;;;;;;;;;;;;;;;6.97;100.00;98395.56;5102231;28;19919;-83
2024/02/11 07:58:13;;;;;;;;;;;;;;;6.91;100.00;98410.69;5103069;28;20386;-83
2024/02/11 08:00:38;;;;;;;;;;;;;;;6.79;100.00;98432.06;5103256;28;19916;-82
2024/02/11 08:03:04;;;;;;;;;;;;;;;6.69;100.00;98418.47;5101418;28;19928;-82
2024/02/11 08:05:30;;;;;;;;;;;;;;;6.70;100.00;98424.63;5104831;28;20006;-83
2024/02/11 08:07:55;;;;;;;;;;;;;;;6.81;100.00;98438.00;5110439;28;20427;-84
2024/02/11 08:10:23;;;;;;;;;;;;;;;6.75;100.00;98441.59;5109810;28;19967;-84
2024/02/11 08:12:49;;;;;;;;;;;;;;;6.82;100.00;98445.00;5109788;28;19957;-83
2024/02/11 08:15:14;;;;;;;;;;;;;;;6.75;100.00;98444.28;5111349;28;20407;-84
2024/02/11 08:17:42;;;;;;;;;;;;;;;6.66;100.00;98445.69;5109103;28;19927;-83
2024/02/11 08:20:09;;;;;;;;;;;;;;;6.72;100.00;98454.63;5108729;28;20020;-84
2024/02/11 08:22:37;;;;;;;;;;;;;;;6.76;100.00;98464.63;5106688;28;19919;-84
2024/02/11 08:25:03;;;;;;;;;;;;;;;6.63;100.00;98472.88;5107636;28;20141;-78
2024/02/11 08:27:28;;;;;;;;;;;;;;;6.64;100.00;98477.16;5105550;28;19919;-78
2024/02/11 08:29:54;;;;;;;;;;;;;;;6.63;100.00;98488.91;5110687;28;20267;-78
2024/02/11 08:32:19;;;;;;;;;;;;;;;6.70;100.00;98494.97;5107916;28;20389;-78
2024/02/11 08:34:44;;;;;;;;;;;;;;;6.56;100.00;98501.53;5109804;28;19919;-78
2024/02/11 08:37:09;;;;;;;;;;;;;;;6.51;100.00;98497.72;5109681;28;20017;-78
2024/02/11 08:39:35;;;;;;;;;;;;;;;6.59;100.00;98498.41;5109089;28;20022;-77
2024/02/11 08:42:05;;;;;;;;;;;;;;;6.52;100.00;98510.06;5107939;28;20019;-78
2024/02/11 08:44:30;;;;;;;;;;;;;;;6.62;100.00;98504.13;5110846;28;19963;-78
2024/02/11 08:46:55;;;;;;;;;;;;;;;6.51;100.00;98513.75;5109222;28;19967;-78
2024/02/11 08:49:20;;;;;;;;;;;;;;;6.50;100.00;98516.66;5109302;28;20007;-78
2024/02/11 08:51:46;;;;;;;;;;;;;;;6.50;100.00;98530.84;5100081;28;20014;-76
2024/02/11 08:54:11;;;;;;;;;;;;;;;6.59;100.00;98538.53;5111101;28;20038;-77
2024/02/11 08:56:36;;;;;;;;;;;;;;;6.65;100.00;98530.41;5108321;28;20034;-76
2024/02/11 08:59:03;;;;;;;;;;;;;;;6.57;100.00;98538.75;5103661;28;20010;-77
2024/02/11 09:01:29;;;;;;;;;;;;;;;6.49;100.00;98539.06;5104974;28;20143;-77
2024/02/11 09:03:54;;;;;;;;;;;;;;;6.53;100.00;98549.06;5108116;28;19955;-77
2024/02/11 09:06:19;;;;;;;;;;;;;;;6.61;100.00;98566.69;5105089;28;19916;-77
2024/02/11 09:08:45;;;;;;;;;;;;;;;6.61;100.00;98555.97;5109109;28;19984;-77
2024/02/11 09:11:15;;;;;;;;;;;;;;;6.57;100.00;98559.31;5108672;28;20090;-77
2024/02/11 09:13:40;;;;;;;;;;;;;;;6.70;100.00;98569.00;5108036;28;19968;-77
2024/02/11 09:16:05;;;;;;;;;;;;;;;6.65;100.00;98567.03;5102471;28;20049;-77
2024/02/11 09:18:31;;;;;;;;;;;;;;;6.88;100.00;98560.13;5097750;28;19968;-77
2024/02/11 09:20:56;;;;;;;;;;;;;;;6.85;100.00;98563.25;5107721;28;19938;-77
2024/02/11 09:23:21;;;;;;;;;;;;;;;6.94;100.00;98565.38;5109408;28;19923;-77
2024/02/11 09:25:46;;;;;;;;;;;;;;;6.92;100.00;98577.31;5106888;28;19919;-77
2024/02/11 09:28:11;;;;;;;;;;;;;;;6.73;100.00;98571.22;5108889;28;19931;-76
2024/02/11 09:30:42;;;;;;;;;;;;;;;7.00;100.00;98570.81;5109214;28;19916;-77
2024/02/11 09:33:07;;;;;;;;;;;;;;;7.08;100.00;98575.84;5097301;28;19920;-77
2024/02/11 09:35:32;;;;;;;;;;;;;;;7.13;100.00;98579.44;5106220;28;20401;-77
2024/02/11 09:37:57;;;;;;;;;;;;;;;7.07;100.00;98580.38;5108190;28;20321;-77
2024/02/11 09:40:23;;;;;;;;;;;;;;;6.98;100.00;98581.75;5107403;28;20375;-77
2024/02/11 09:42:49;;;;;;;;;;;;;;;7.07;100.00;98590.25;5108084;28;20038;-76
2024/02/11 09:45:18;;;;;;;;;;;;;;;7.16;100.00;98598.78;5085185;28;19927;-77
2024/02/11 09:47:45;;;;;;;;;;;;;;;7.18;100.00;98596.69;5107473;28;19931;-77
2024/02/11 09:50:11;;;;;;;;;;;;;;;7.19;100.00;98607.16;5090265;28;19935;-77
2024/02/11 09:52:38;;;;;;;;;;;;;;;7.25;100.00;98608.06;5108601;28;19923;-77
2024/02/11 09:55:03;;;;;;;;;;;;;;;7.26;100.00;98615.06;5106835;28;20424;-77
2024/02/11 09:57:30;;;;;;;;;;;;;;;7.25;100.00;98614.25;5090836;28;19967;-78
2024/02/11 09:59:55;;;;;;;;;;;;;;;7.25;100.00;98621.47;5106967;28;20022;-77
2024/02/11 10:02:20;;;;;;;;;;;;;;;7.23;100.00;98627.06;5108053;28;20018;-78
2024/02/11 10:04:46;;;;;;;;;;;;;;;7.33;100.00;98621.13;5106234;28;20633;-78
2024/02/11 10:07:23;;;;;;;;;;;;;;;7.37;100.00;98625.00;5108594;28;20077;-77
2024/02/11 10:09:48;;;;;;;;;;;;;;;7.39;100.00;98630.94;5106699;28;19924;-78
2024/02/11 10:12:14;;;;;;;;;;;;;;;7.39;100.00;98636.28;5107795;28;20324;-77
2024/02/11 10:14:49;;;;;;;;;;;;;;;7.39;100.00;98638.97;5104087;28;20346;-77
2024/02/11 10:17:14;;;;;;;;;;;;;;;7.53;100.00;98636.84;5089954;28;20012;-78
2024/02/11 10:19:44;;;;;;;;;;;;;;;7.59;100.00;98643.97;5105204;28;20014;-78
2024/02/11 10:22:10;;;;;;;;;;;;;;;7.71;100.00;98648.50;5104601;28;19920;-78
2024/02/11 10:24:36;;;;;;;;;;;;;;;7.79;100.00;98650.03;5099415;28;20030;-77
2024/02/11 10:27:01;;;;;;;;;;;;;;;7.71;100.00;98649.34;5103619;28;19924;-77
2024/02/11 10:29:27;;;;;;;;;;;;;;;7.88;100.00;98654.00;5106206;28;20347;-78
2024/02/11 10:31:53;;;;;;;;;;;;;;;8.01;100.00;98652.94;5106746;28;19931;-77
2024/02/11 10:34:18;;;;;;;;;;;;;;;8.04;100.00;98652.44;5088929;28;19924;-77
2024/02/11 10:36:45;;;;;;;;;;;;;;;8.12;100.00;98651.31;5106882;28;19920;-77
2024/02/11 10:39:11;;;;;;;;;;;;;;;8.12;100.00;98653.97;5085120;28;20051;-77
2024/02/11 10:41:38;;;;;;;;;;;;;;;8.24;100.00;98661.97;5105572;28;20007;-79
2024/02/11 10:44:04;;;;;;;;;;;;;;;8.18;100.00;98663.75;5107532;28;19919;-77
2024/02/11 10:46:30;;;;;;;;;;;;;;;8.18;100.00;98658.38;5087929;28;19924;-77
2024/02/11 10:48:55;;;;;;;;;;;;;;;8.25;100.00;98659.09;5101552;28;19988;-77
2024/02/11 10:51:23;;;;;;;;;;;;;;;8.20;100.00;98669.69;5108753;28;20022;-77
2024/02/11 10:53:52;;;;;;;;;;;;;;;8.44;100.00;98672.34;5107723;28;19923;-78
2024/02/11 10:56:18;;;;;;;;;;;;;;;8.35;100.00;98674.56;5108109;28;19920;-78
2024/02/11 10:59:02;;;;;;;;;;;;;;;8.12;100.00;98672.75;5107432;28;19946;-77
2024/02/11 11:01:28;;;;;;;;;;;;;;;7.97;100.00;98668.66;5102628;28;19931;-77
2024/02/11 11:03:53;;;;;;;;;;;;;;;7.68;100.00;98668.53;5089772;28;19923;-76
2024/02/11 11:06:18;;;;;;;;;;;;;;;7.71;100.00;98680.66;5089483;28;19926;-77
2024/02/11 11:08:43;;;;;;;;;;;;;;;7.58;100.00;98669.13;5107650;28;19988;-77
2024/02/11 11:11:09;;;;;;;;;;;;;;;7.67;100.00;98674.16;5103150;28;19947;-78
2024/02/11 11:13:34;;;;;;;;;;;;;;;7.76;100.00;98669.25;5106430;28;19920;-77
2024/02/11 11:16:04;;;;;;;;;;;;;;;7.93;100.00;98672.88;5104174;28;19926;-77
2024/02/11 11:18:36;;;;;;;;;;;;;;;8.15;100.00;98677.59;5105843;28;20097;-77
2024/02/11 11:21:04;;;;;;;;;;;;;;;8.18;100.00;98669.09;5105996;28;19924;-76
2024/02/11 11:23:29;;;;;;;;;;;;;;;8.34;100.00;98679.09;5106360;28;19919;-77
2024/02/11 11:25:58;;;;;;;;;;;;;;;8.34;100.00;98684.47;5106751;28;20417;-77
2024/02/11 11:28:30;;;;;;;;;;;;;;;8.32;100.00;98681.19;5104853;28;19920;-77
2024/02/11 11:30:56;;;;;;;;;;;;;;;8.29;100.00;98681.69;5107429;28;20244;-78
2024/02/11 11:33:21;;;;;;;;;;;;;;;8.19;100.00;98673.41;5107097;28;19920;-77
2024/02/11 11:35:46;;;;;;;;;;;;;;;8.05;100.00;98683.56;5091817;28;19920;-77
2024/02/11 11:38:11;;;;;;;;;;;;;;;7.91;100.00;98674.97;5104202;28;20014;-77
2024/02/11 11:40:37;;;;;;;;;;;;;;;7.67;100.00;98674.16;5103112;28;20636;-77
2024/02/11 11:43:12;;;;;;;;;;;;;;;7.72;100.00;98675.06;5104134;28;19947;-77
2024/02/11 11:45:38;;;;;;;;;;;;;;;7.79;100.00;98677.63;5106038;28;20291;-77
2024/02/11 11:48:03;;;;;;;;;;;;;;;7.73;100.00;98668.66;5109474;28;19924;-79
2024/02/11 11:50:28;;;;;;;;;;;;;;;7.68;100.00;98681.09;5110412;28;19949;-77
2024/02/11 11:52:59;;;;;;;;;;;;;;;7.51;100.00;98672.94;5094272;28;19919;-77
2024/02/11 11:55:25;;;;;;;;;;;;;;;7.70;100.00;98679.00;5109911;28;19919;-77
2024/02/11 11:58:00;;;;;;;;;;;;;;;7.87;100.00;98674.59;5110232;28;19920;-77
2024/02/11 12:00:25;;;;;;;;;;;;;;;8.10;100.00;98672.16;5108000;28;19930;-77
2024/02/11 12:02:50;;;;;;;;;;;;;;;7.84;100.00;98674.25;5104647;28;19928;-77
2024/02/11 12:05:15;;;;;;;;;;;;;;;8.04;100.00;98680.06;5091371;28;19926;-77
2024/02/11 12:07:41;;;;;;;;;;;;;;;8.03;100.00;98677.66;5106696;28;20023;-77
2024/02/11 12:10:06;;;;;;;;;;;;;;;8.17;100.00;98668.31;5110170;28;19976;-77
2024/02/11 12:12:32;;;;;;;;;;;;;;;8.25;100.00;98677.00;5105624;28;19927;-76
2024/02/11 12:14:58;;;;;;;;;;;;;;;8.24;100.00;98678.91;5108977;28;20385;-77
2024/02/11 12:17:23;;;;;;;;;;;;;;;8.24;100.00;98684.25;5103416;28;19928;-78
2024/02/11 12:19:48;;;;;;;;;;;;;;;8.00;100.00;98678.91;5109307;28;20412;-78
2024/02/11 12:22:14;;;;;;;;;;;;;;;8.03;100.00;98689.16;5105426;28;20331;-78
2024/02/11 12:24:41;;;;;;;;;;;;;;;7.79;100.00;98684.84;5110519;27;19927;-78
2024/02/11 12:27:06;;;;;;;;;;;;;;;7.82;100.00;98676.34;5108387;28;19924;-78
2024/02/11 12:29:32;;;;;;;;;;;;;;;7.91;100.00;98683.00;5110850;28;20463;-78
2024/02/11 12:31:57;;;;;;;;;;;;;;;7.86;100.00;98682.88;5108573;28;19928;-78
2024/02/11 12:34:25;;;;;;;;;;;;;;;7.85;100.00;98682.03;5107694;28;19932;-77
2024/02/11 12:36:56;;;;;;;;;;;;;;;7.90;100.00;98684.06;5110400;28;19915;-78
2024/02/11 12:39:22;;;;;;;;;;;;;;;8.08;100.00;98685.78;5108081;28;19930;-76
2024/02/11 12:41:47;;;;;;;;;;;;;;;8.08;100.00;98690.34;5090302;28;19920;-78